Aviator — V7NU9 — position and weather

sailwx.info

Track history (hours):
 
Tides and Currents Weather Stations Pressure Air Temp Water Temp Dewpoint Dewpoint Depression Visibility Wind Speed Wind Dir Waves Ship Positions

Aviator

Last reported at 2016-Jul-15 23:31 UTC. Time now 2016-Jul-27 23:02 UTC.
Position N 32°59' W 009°33'.
Warning: this ship's position is 11 days out of date.

Length 140 m; draft 8.7 m.

Type: Ship. MMSI: 538003023.

Date/timePositionNaut miles runAvg speedWind from/ knotsBaromVisibWave heightAir tempDewpointWater temp
2016-Jul-15 23:31N 32°59' W 009°33'1513.0
2016-Jul-15 22:20N 33°12' W 009°22'1013.0
2016-Jul-15 21:33N 33°20' W 009°15'4213.2
2016-Jul-15 18:22N 33°55' W 008°47'1113.0
2016-Jul-15 17:32N 34°03' W 008°39'1313.0
2016-Jul-15 16:33N 34°12' W 008°28'1512.9
2016-Jul-15 15:24N 34°22' W 008°15'1112.9
2016-Jul-15 14:33N 34°30' W 008°05'1312.8
2016-Jul-15 13:34N 34°39' W 007°54'1412.6
2016-Jul-15 12:28N 34°48' W 007°42'12411.3
2016-Jul-15 01:32N 35°58' W 005°37'1111.2
2016-Jul-15 00:34N 36°02' W 005°24'6 5.9
2016-Jul-14 23:33N 36°07' W 005°22'0 0.0
2016-Jul-14 22:33N 36°07' W 005°22'0 0.1
2016-Jul-14 21:33N 36°07' W 005°22'0 0.1
2016-Jul-14 20:33N 36°07' W 005°22'0 0.1
2016-Jul-14 19:33N 36°07' W 005°22'0 0.1
2016-Jul-14 18:30N 36°07' W 005°22'0 0.0
2016-Jul-14 17:33N 36°07' W 005°22'0 0.0
2016-Jul-14 16:18N 36°07' W 005°22'0 0.2
2016-Jul-14 15:33N 36°07' W 005°22'3 3.0
2016-Jul-14 14:34N 36°04' W 005°21'3 3.0
2016-Jul-14 13:33N 36°05' W 005°17'226 9.0
2016-Jul-13 12:26N 37°34' W 000°58'0 0.0
2016-Jul-13 10:32N 37°34' W 000°58'1 0.1
2016-Jul-12 14:33N 37°34' W 000°60'1 0.0
2016-Jul-11 06:15N 37°34' W 001°01'0 0.0
2016-Jul-11 01:33N 37°34' W 001°01'0 0.1
2016-Jul-11 00:27N 37°34' W 001°01'  
2016-Jul-08 07:19N 37°34' W 001°01'0 0.0
2016-Jul-07 05:25N 37°34' W 001°01'0 0.0
2016-Jul-06 07:28N 37°34' W 001°01'3 3.5
2016-Jul-06 06:33N 37°31' W 001°01'9 8.5
2016-Jul-06 05:33N 37°25' W 000°52'1312.9
2016-Jul-06 04:33N 37°26' W 000°36'1211.6
2016-Jul-06 03:33N 37°26' W 000°21'1313.5
2016-Jul-06 02:33N 37°27' W 000°05'1313.1
2016-Jul-06 01:33N 37°27' E 000°12'1313.0
2016-Jul-06 00:33N 37°27' E 000°28'1312.5
2016-Jul-05 23:33N 37°28' E 000°44'  
Track history (hours):
 
Tides and Currents Weather Stations Pressure Air Temp Water Temp Dewpoint Dewpoint Depression Visibility Wind Speed Wind Dir Waves Ship Positions

Aviator

Last reported at 2016-Jul-15 23:31 UTC. Time now 2016-Jul-27 23:02 UTC.
Position N 32°59' W 009°33'.
Warning: this ship's position is 11 days out of date.

Length 140 m; draft 8.7 m.

Type: Ship. MMSI: 538003023.

Date/timePositionNaut miles runAvg speedWind from/ knotsBaromVisibWave heightAir tempDewpointWater temp
2016-Jul-15 23:31N 32°59' W 009°33'1513.0
2016-Jul-15 22:20N 33°12' W 009°22'1013.0
2016-Jul-15 21:33N 33°20' W 009°15'4213.2
2016-Jul-15 18:22N 33°55' W 008°47'1113.0
2016-Jul-15 17:32N 34°03' W 008°39'1313.0
2016-Jul-15 16:33N 34°12' W 008°28'1512.9
2016-Jul-15 15:24N 34°22' W 008°15'1112.9
2016-Jul-15 14:33N 34°30' W 008°05'1312.8
2016-Jul-15 13:34N 34°39' W 007°54'1412.6
2016-Jul-15 12:28N 34°48' W 007°42'12411.3
2016-Jul-15 01:32N 35°58' W 005°37'1111.2
2016-Jul-15 00:34N 36°02' W 005°24'6 5.9
2016-Jul-14 23:33N 36°07' W 005°22'0 0.0
2016-Jul-14 22:33N 36°07' W 005°22'0 0.1
2016-Jul-14 21:33N 36°07' W 005°22'0 0.1
2016-Jul-14 20:33N 36°07' W 005°22'0 0.1
2016-Jul-14 19:33N 36°07' W 005°22'0 0.1
2016-Jul-14 18:30N 36°07' W 005°22'0 0.0
2016-Jul-14 17:33N 36°07' W 005°22'0 0.0
2016-Jul-14 16:18N 36°07' W 005°22'0 0.2
2016-Jul-14 15:33N 36°07' W 005°22'3 3.0
2016-Jul-14 14:34N 36°04' W 005°21'3 3.0
2016-Jul-14 13:33N 36°05' W 005°17'226 9.0
2016-Jul-13 12:26N 37°34' W 000°58'0 0.0
2016-Jul-13 10:32N 37°34' W 000°58'1 0.1
2016-Jul-12 14:33N 37°34' W 000°60'1 0.0
2016-Jul-11 06:15N 37°34' W 001°01'0 0.0
2016-Jul-11 01:33N 37°34' W 001°01'0 0.1
2016-Jul-11 00:27N 37°34' W 001°01'  
2016-Jul-08 07:19N 37°34' W 001°01'0 0.0
2016-Jul-07 05:25N 37°34' W 001°01'0 0.0
2016-Jul-06 07:28N 37°34' W 001°01'3 3.5
2016-Jul-06 06:33N 37°31' W 001°01'9 8.5
2016-Jul-06 05:33N 37°25' W 000°52'1312.9
2016-Jul-06 04:33N 37°26' W 000°36'1211.6
2016-Jul-06 03:33N 37°26' W 000°21'1313.5
2016-Jul-06 02:33N 37°27' W 000°05'1313.1
2016-Jul-06 01:33N 37°27' E 000°12'1313.0
2016-Jul-06 00:33N 37°27' E 000°28'1312.5
2016-Jul-05 23:33N 37°28' E 000°44'  

Dump ship's entire track history